Time;durP1;ratioP1;P1;durP2;ratioP2;P2;SDS_P1;SDS_P2;PMS_P1;PMS_P2;Temp;Humidity;BMP_temperature;BMP_pressure;BME280_temperature;BME280_humidity;BME280_pressure;Samples;Min_cycle;Max_cycle;Signal;HPM_P1;HPM_P2
2022/11/26 00:02:21;;;;;;;;;;;;;;;;;;6166493;23;19987;-88
2022/11/26 00:04:47;;;;;;;;;;;;;;;;;;6138448;23;19986;-88
2022/11/26 00:07:13;;;;;;;;;;;;;;;;;;6139108;23;19924;-88
2022/11/26 00:09:39;;;;;;;;;;;;;;;;;;6112417;23;19927;-88
2022/11/26 00:12:05;;;;;;;;;;;;;;;;;;6113858;23;20145;-88
2022/11/26 00:14:33;;;;;;;;;;;;;;;;;;6112980;23;19916;-88
2022/11/26 00:16:59;;;;;;;;;;;;;;;;;;6117647;23;19927;-89
2022/11/26 00:19:25;;;;;;;;;;;;;;;;;;6110934;23;19924;-89
2022/11/26 00:21:51;;;;;;;;;;;;;;;;;;6114144;23;19971;-88
2022/11/26 00:24:17;;;;;;;;;;;;;;;;;;6113192;23;20016;-89
2022/11/26 00:26:42;;;;;;;;;;;;;;;;;;6110055;23;20351;-88
2022/11/26 00:29:08;;;;;;;;;;;;;;;;;;6112708;23;19921;-88
2022/11/26 00:31:34;;;;;;;;;;;;;;;;;;6110338;23;19955;-88
2022/11/26 00:34:03;;;;;;;;;;;;;;;;;;6112208;23;20402;-88
2022/11/26 00:36:29;;;;;;;;;;;;;;;;;;6111086;23;19916;-88
2022/11/26 00:38:55;;;;;;;;;;;;;;;;;;6112599;23;19920;-89
2022/11/26 00:41:21;;;;;;;;;;;;;;;;;;6091126;23;19925;-88
2022/11/26 00:43:47;;;;;;;;;;;;;;;;;;6109201;23;19952;-89
2022/11/26 00:46:13;;;;;;;;;;;;;;;;;;6114781;23;20332;-89
2022/11/26 00:48:39;;;;;;;;;;;;;;;;;;6112024;23;19920;-88
2022/11/26 00:51:05;;;;;;;;;;;;;;;;;;6115538;23;19952;-87
2022/11/26 00:53:31;;;;;;;;;;;;;;;;;;6110378;23;20242;-88
2022/11/26 00:55:57;;;;;;;;;;;;;;;;;;6114218;23;19924;-87
2022/11/26 00:58:23;;;;;;;;;;;;;;;;;;6117002;23;19978;-87
2022/11/26 01:00:49;;;;;;;;;;;;;;;;;;6110694;23;19952;-87
2022/11/26 01:03:15;;;;;;;;;;;;;;;;;;6111085;23;19975;-88
2022/11/26 01:05:41;;;;;;;;;;;;;;;;;;6111963;23;20388;-87
2022/11/26 01:08:06;;;;;;;;;;;;;;;;;;6129043;23;19950;-88
2022/11/26 01:10:32;;;;;;;;;;;;;;;;;;6139336;23;20217;-88
2022/11/26 01:12:58;;;;;;;;;;;;;;;;;;6143625;23;19920;-88
2022/11/26 01:15:24;;;;;;;;;;;;;;;;;;6113166;23;20365;-88
2022/11/26 01:17:50;;;;;;;;;;;;;;;;;;6143187;23;19920;-88
2022/11/26 01:20:16;;;;;;;;;;;;;;;;;;6138583;23;20338;-88
2022/11/26 01:22:42;;;;;;;;;;;;;;;;;;6134974;23;20312;-86
2022/11/26 01:25:08;;;;;;;;;;;;;;;;;;6140621;23;19998;-88
2022/11/26 01:27:34;;;;;;;;;;;;;;;;;;6136766;23;19924;-88
2022/11/26 01:30:00;;;;;;;;;;;;;;;;;;6140913;23;19927;-88
2022/11/26 01:32:26;;;;;;;;;;;;;;;;;;6114298;23;20219;-88
2022/11/26 01:34:52;;;;;;;;;;;;;;;;;;6141822;23;19920;-87
2022/11/26 01:37:18;;;;;;;;;;;;;;;;;;6140176;23;19920;-87
2022/11/26 01:39:44;;;;;;;;;;;;;;;;;;6137989;23;20068;-88
2022/11/26 01:42:10;;;;;;;;;;;;;;;;;;6137208;23;19920;-88
2022/11/26 01:44:36;;;;;;;;;;;;;;;;;;6110961;23;20023;-87
2022/11/26 01:47:01;;;;;;;;;;;;;;;;;;6140543;23;19931;-88
2022/11/26 01:49:27;;;;;;;;;;;;;;;;;;6111225;23;19920;-88
2022/11/26 01:51:53;;;;;;;;;;;;;;;;;;6113982;23;19931;-88
2022/11/26 01:54:19;;;;;;;;;;;;;;;;;;6111527;23;20230;-88
2022/11/26 01:56:45;;;;;;;;;;;;;;;;;;6111712;23;20171;-88
2022/11/26 01:59:11;;;;;;;;;;;;;;;;;;6111610;23;19960;-88
2022/11/26 02:01:37;;;;;;;;;;;;;;;;;;6134387;23;19991;-89
2022/11/26 02:04:03;;;;;;;;;;;;;;;;;;6110958;23;19951;-88
2022/11/26 02:06:30;;;;;;;;;;;;;;;;;;6136086;23;19955;-88
2022/11/26 02:08:56;;;;;;;;;;;;;;;;;;6138583;23;19925;-87
2022/11/26 02:11:25;;;;;;;;;;;;;;;;;;6115287;23;19920;-88
2022/11/26 02:13:51;;;;;;;;;;;;;;;;;;6136950;23;20265;-87
2022/11/26 02:16:17;;;;;;;;;;;;;;;;;;6138988;23;20245;-87
2022/11/26 02:18:43;;;;;;;;;;;;;;;;;;6136104;23;20407;-88
2022/11/26 02:21:09;;;;;;;;;;;;;;;;;;6113865;23;19920;-88
2022/11/26 02:23:35;;;;;;;;;;;;;;;;;;6135749;23;19978;-88
2022/11/26 02:26:01;;;;;;;;;;;;;;;;;;6138150;23;20425;-87
2022/11/26 02:28:27;;;;;;;;;;;;;;;;;;6110187;23;20349;-87
2022/11/26 02:30:53;;;;;;;;;;;;;;;;;;6138396;23;20349;-88
2022/11/26 02:33:19;;;;;;;;;;;;;;;;;;6113859;23;20246;-87
2022/11/26 02:35:45;;;;;;;;;;;;;;;;;;6116264;23;19920;-88
2022/11/26 02:38:11;;;;;;;;;;;;;;;;;;6118547;23;19923;-87
2022/11/26 02:40:37;;;;;;;;;;;;;;;;;;6115641;23;19974;-88
2022/11/26 02:43:03;;;;;;;;;;;;;;;;;;6115197;23;19924;-88
2022/11/26 02:45:29;;;;;;;;;;;;;;;;;;6113538;23;19920;-87
2022/11/26 02:47:55;;;;;;;;;;;;;;;;;;6139102;23;19920;-88
2022/11/26 02:50:21;;;;;;;;;;;;;;;;;;6114140;23;19920;-88
2022/11/26 02:52:46;;;;;;;;;;;;;;;;;;6139995;23;19982;-87
2022/11/26 02:55:12;;;;;;;;;;;;;;;;;;6139851;23;20540;-88
2022/11/26 02:57:38;;;;;;;;;;;;;;;;;;6114494;23;19943;-88
2022/11/26 03:00:04;;;;;;;;;;;;;;;;;;6115794;23;19930;-88
2022/11/26 03:02:30;;;;;;;;;;;;;;;;;;6112045;23;19970;-88
2022/11/26 03:04:56;;;;;;;;;;;;;;;;;;6119650;23;19920;-88
2022/11/26 03:07:25;;;;;;;;;;;;;;;;;;6117020;23;19962;-88
2022/11/26 03:09:51;;;;;;;;;;;;;;;;;;6138987;23;19921;-89
2022/11/26 03:12:17;;;;;;;;;;;;;;;;;;6140887;23;19927;-88
2022/11/26 03:14:43;;;;;;;;;;;;;;;;;;6140753;23;20869;-88
2022/11/26 03:17:09;;;;;;;;;;;;;;;;;;6140762;23;19920;-88
2022/11/26 03:19:35;;;;;;;;;;;;;;;;;;6137010;23;19924;-89
2022/11/26 03:22:01;;;;;;;;;;;;;;;;;;6139902;23;20333;-87
2022/11/26 03:24:27;;;;;;;;;;;;;;;;;;6137576;23;20332;-89
2022/11/26 03:26:53;;;;;;;;;;;;;;;;;;6141273;23;19924;-88
2022/11/26 03:29:19;;;;;;;;;;;;;;;;;;6163289;23;19920;-88
2022/11/26 03:31:44;;;;;;;;;;;;;;;;;;6138262;23;19927;-88
2022/11/26 03:34:10;;;;;;;;;;;;;;;;;;6138902;23;19926;-88
2022/11/26 03:36:36;;;;;;;;;;;;;;;;;;6141359;23;19920;-88
2022/11/26 03:39:02;;;;;;;;;;;;;;;;;;6167473;23;19928;-88
2022/11/26 03:41:28;;;;;;;;;;;;;;;;;;6139855;23;19920;-88
2022/11/26 03:43:54;;;;;;;;;;;;;;;;;;6168055;23;19926;-88
2022/11/26 03:46:20;;;;;;;;;;;;;;;;;;6142538;23;19916;-88
2022/11/26 03:48:46;;;;;;;;;;;;;;;;;;6138229;23;19940;-88
2022/11/26 03:51:12;;;;;;;;;;;;;;;;;;6142714;23;19916;-88
2022/11/26 03:53:38;;;;;;;;;;;;;;;;;;6133649;23;19920;-88
2022/11/26 03:56:04;;;;;;;;;;;;;;;;;;6164454;23;19921;-88
2022/11/26 03:58:30;;;;;;;;;;;;;;;;;;6136445;23;20572;-88
2022/11/26 04:00:56;;;;;;;;;;;;;;;;;;6140294;23;20301;-89
2022/11/26 04:03:25;;;;;;;;;;;;;;;;;;6137319;23;20125;-88
2022/11/26 04:05:51;;;;;;;;;;;;;;;;;;6164674;23;19963;-88
2022/11/26 04:08:17;;;;;;;;;;;;;;;;;;6140402;23;20297;-89
2022/11/26 04:10:43;;;;;;;;;;;;;;;;;;6139624;23;20837;-88
2022/11/26 04:13:08;;;;;;;;;;;;;;;;;;6141009;23;20154;-88
2022/11/26 04:15:34;;;;;;;;;;;;;;;;;;6140049;23;19991;-89
2022/11/26 04:18:00;;;;;;;;;;;;;;;;;;6119107;23;19928;-88
2022/11/26 04:20:26;;;;;;;;;;;;;;;;;;6115478;23;19924;-89
2022/11/26 04:22:52;;;;;;;;;;;;;;;;;;6119791;23;19974;-88
2022/11/26 04:25:18;;;;;;;;;;;;;;;;;;6116841;23;19927;-88
2022/11/26 04:27:44;;;;;;;;;;;;;;;;;;6115135;23;19986;-88
2022/11/26 04:30:10;;;;;;;;;;;;;;;;;;6117130;23;19920;-89
2022/11/26 04:32:38;;;;;;;;;;;;;;;;;;6113838;23;19931;-88
2022/11/26 04:35:04;;;;;;;;;;;;;;;;;;6118633;23;19927;-88
2022/11/26 04:37:30;;;;;;;;;;;;;;;;;;6140966;23;19916;-88
2022/11/26 04:39:56;;;;;;;;;;;;;;;;;;6118750;23;19920;-88
2022/11/26 04:42:22;;;;;;;;;;;;;;;;;;6143240;23;19926;-88
2022/11/26 04:44:48;;;;;;;;;;;;;;;;;;6139085;23;20382;-89
2022/11/26 04:47:14;;;;;;;;;;;;;;;;;;6141942;23;19916;-89
2022/11/26 04:49:40;;;;;;;;;;;;;;;;;;6115725;23;19943;-88
2022/11/26 04:52:06;;;;;;;;;;;;;;;;;;6115916;23;19920;-88
2022/11/26 04:54:32;;;;;;;;;;;;;;;;;;6114315;23;19943;-88
2022/11/26 04:56:58;;;;;;;;;;;;;;;;;;6146580;23;19926;-88
2022/11/26 04:59:24;;;;;;;;;;;;;;;;;;6142032;23;19924;-88
2022/11/26 05:01:52;;;;;;;;;;;;;;;;;;6143991;23;19920;-88
2022/11/26 05:04:19;;;;;;;;;;;;;;;;;;6140903;23;20616;-88
2022/11/26 05:06:45;;;;;;;;;;;;;;;;;;6117236;23;19920;-89
2022/11/26 05:09:11;;;;;;;;;;;;;;;;;;6095987;23;20326;-88
2022/11/26 05:11:37;;;;;;;;;;;;;;;;;;6109959;23;19927;-88
2022/11/26 05:14:02;;;;;;;;;;;;;;;;;;6111991;23;19931;-88
2022/11/26 05:16:28;;;;;;;;;;;;;;;;;;6107949;23;19921;-88
2022/11/26 05:18:55;;;;;;;;;;;;;;;;;;6112242;23;19921;-88
2022/11/26 05:21:21;;;;;;;;;;;;;;;;;;6133723;23;19920;-88
2022/11/26 05:23:47;;;;;;;;;;;;;;;;;;6085851;23;19920;-88
2022/11/26 05:26:13;;;;;;;;;;;;;;;;;;6112584;23;20274;-88
2022/11/26 05:28:38;;;;;;;;;;;;;;;;;;6108248;23;19973;-88
2022/11/26 05:31:05;;;;;;;;;;;;;;;;;;6109904;23;19927;-89
2022/11/26 05:33:31;;;;;;;;;;;;;;;;;;6107887;23;20334;-88
2022/11/26 05:35:57;;;;;;;;;;;;;;;;;;6110755;23;19921;-89
2022/11/26 05:38:23;;;;;;;;;;;;;;;;;;6111372;23;19976;-89
2022/11/26 05:40:49;;;;;;;;;;;;;;;;;;6114073;23;19931;-89
2022/11/26 05:43:15;;;;;;;;;;;;;;;;;;6115026;23;19987;-89
2022/11/26 05:45:40;;;;;;;;;;;;;;;;;;6111284;23;20333;-88
2022/11/26 05:48:06;;;;;;;;;;;;;;;;;;6114267;23;19921;-89
2022/11/26 05:50:32;;;;;;;;;;;;;;;;;;6111035;23;20187;-89
2022/11/26 05:52:58;;;;;;;;;;;;;;;;;;6114800;23;19920;-89
2022/11/26 05:55:24;;;;;;;;;;;;;;;;;;6112116;23;19924;-89
2022/11/26 05:57:50;;;;;;;;;;;;;;;;;;6114570;23;19963;-89
2022/11/26 06:00:16;;;;;;;;;;;;;;;;;;6112075;23;19921;-89
2022/11/26 06:02:42;;;;;;;;;;;;;;;;;;6111447;23;20260;-88
2022/11/26 06:05:08;;;;;;;;;;;;;;;;;;6114246;23;19928;-89
2022/11/26 06:07:34;;;;;;;;;;;;;;;;;;6114478;23;19916;-88
2022/11/26 06:10:00;;;;;;;;;;;;;;;;;;6141128;23;19916;-88
2022/11/26 06:12:26;;;;;;;;;;;;;;;;;;6141518;23;19952;-89
2022/11/26 06:14:52;;;;;;;;;;;;;;;;;;6119920;23;20400;-88
2022/11/26 06:17:18;;;;;;;;;;;;;;;;;;6144611;23;20444;-88
2022/11/26 06:19:43;;;;;;;;;;;;;;;;;;6138184;23;20051;-89
2022/11/26 06:22:09;;;;;;;;;;;;;;;;;;6143615;23;20334;-89
2022/11/26 06:24:35;;;;;;;;;;;;;;;;;;6141705;23;20321;-89
2022/11/26 06:27:01;;;;;;;;;;;;;;;;;;6144648;23;20282;-88
2022/11/26 06:29:27;;;;;;;;;;;;;;;;;;6140571;23;19920;-88
2022/11/26 06:31:53;;;;;;;;;;;;;;;;;;6119110;23;20371;-89
2022/11/26 06:34:19;;;;;;;;;;;;;;;;;;6118470;23;19956;-89
2022/11/26 06:36:45;;;;;;;;;;;;;;;;;;6141770;23;19920;-88
2022/11/26 06:39:11;;;;;;;;;;;;;;;;;;6117355;23;19924;-89
2022/11/26 06:41:37;;;;;;;;;;;;;;;;;;6115159;23;19920;-88
2022/11/26 06:44:03;;;;;;;;;;;;;;;;;;6120018;23;19925;-89
2022/11/26 06:46:29;;;;;;;;;;;;;;;;;;6142739;23;19970;-89
2022/11/26 06:48:55;;;;;;;;;;;;;;;;;;6121573;23;19920;-89
2022/11/26 06:51:21;;;;;;;;;;;;;;;;;;6118861;23;20345;-88
2022/11/26 06:53:47;;;;;;;;;;;;;;;;;;6141592;23;20305;-89
2022/11/26 06:56:13;;;;;;;;;;;;;;;;;;6144447;23;19924;-89
2022/11/26 06:58:39;;;;;;;;;;;;;;;;;;6168446;23;20016;-89
2022/11/26 07:01:05;;;;;;;;;;;;;;;;;;6142907;23;20456;-88
2022/11/26 07:03:30;;;;;;;;;;;;;;;;;;6138844;23;20242;-89
2022/11/26 07:05:56;;;;;;;;;;;;;;;;;;6118602;23;19924;-89
2022/11/26 07:08:23;;;;;;;;;;;;;;;;;;6117506;23;19928;-89
2022/11/26 07:10:49;;;;;;;;;;;;;;;;;;6120478;23;19920;-88
2022/11/26 07:13:14;;;;;;;;;;;;;;;;;;6119353;23;19921;-89
2022/11/26 07:15:40;;;;;;;;;;;;;;;;;;6117874;23;19943;-88
2022/11/26 07:18:06;;;;;;;;;;;;;;;;;;6120880;23;19916;-89
2022/11/26 07:20:32;;;;;;;;;;;;;;;;;;6115194;23;20414;-89
2022/11/26 07:23:01;;;;;;;;;;;;;;;;;;6119403;23;19916;-89
2022/11/26 07:25:27;;;;;;;;;;;;;;;;;;6116017;23;19916;-88
2022/11/26 07:27:53;;;;;;;;;;;;;;;;;;6144994;23;19927;-88
2022/11/26 07:30:19;;;;;;;;;;;;;;;;;;6117828;23;19920;-88
2022/11/26 07:32:45;;;;;;;;;;;;;;;;;;6118160;23;19971;-88
2022/11/26 07:35:11;;;;;;;;;;;;;;;;;;6118868;23;19920;-89
2022/11/26 07:37:37;;;;;;;;;;;;;;;;;;6141361;23;20385;-88
2022/11/26 07:40:03;;;;;;;;;;;;;;;;;;6118043;23;19975;-89
2022/11/26 07:42:29;;;;;;;;;;;;;;;;;;6141699;23;19920;-89
2022/11/26 07:44:55;;;;;;;;;;;;;;;;;;6121501;23;19989;-88
2022/11/26 07:47:21;;;;;;;;;;;;;;;;;;6147373;23;19951;-88
2022/11/26 07:49:47;;;;;;;;;;;;;;;;;;6119287;23;19920;-89
2022/11/26 07:52:12;;;;;;;;;;;;;;;;;;6120264;23;19975;-89
2022/11/26 07:54:38;;;;;;;;;;;;;;;;;;6141122;23;19920;-89
2022/11/26 07:57:04;;;;;;;;;;;;;;;;;;6145216;23;19920;-89
2022/11/26 07:59:30;;;;;;;;;;;;;;;;;;6142371;23;19982;-89
2022/11/26 08:01:56;;;;;;;;;;;;;;;;;;6115962;23;20357;-89
2022/11/26 08:04:25;;;;;;;;;;;;;;;;;;6119286;23;20329;-89
2022/11/26 08:06:51;;;;;;;;;;;;;;;;;;6143896;23;19920;-89
2022/11/26 08:09:17;;;;;;;;;;;;;;;;;;6119397;23;19924;-89
2022/11/26 08:11:43;;;;;;;;;;;;;;;;;;6141874;23;20310;-89
2022/11/26 08:14:09;;;;;;;;;;;;;;;;;;6145486;23;19991;-89
2022/11/26 08:16:35;;;;;;;;;;;;;;;;;;6167148;23;19920;-89
2022/11/26 08:19:01;;;;;;;;;;;;;;;;;;6146272;23;19964;-89
2022/11/26 08:21:27;;;;;;;;;;;;;;;;;;6167020;23;19974;-88
2022/11/26 08:23:53;;;;;;;;;;;;;;;;;;6144654;23;19955;-89
2022/11/26 08:26:19;;;;;;;;;;;;;;;;;;6146738;23;19946;-88
2022/11/26 08:28:45;;;;;;;;;;;;;;;;;;6142677;23;19921;-89
2022/11/26 08:31:11;;;;;;;;;;;;;;;;;;6145082;23;19916;-89
2022/11/26 08:33:37;;;;;;;;;;;;;;;;;;6140859;23;20262;-89
2022/11/26 08:36:03;;;;;;;;;;;;;;;;;;6144260;23;19928;-89
2022/11/26 08:38:29;;;;;;;;;;;;;;;;;;6141832;23;19916;-89
2022/11/26 08:40:55;;;;;;;;;;;;;;;;;;6145629;23;19963;-89
2022/11/26 08:43:21;;;;;;;;;;;;;;;;;;6144545;23;19975;-89
2022/11/26 08:45:47;;;;;;;;;;;;;;;;;;6140857;23;19927;-90
2022/11/26 08:48:13;;;;;;;;;;;;;;;;;;6142563;23;19998;-89
2022/11/26 08:50:39;;;;;;;;;;;;;;;;;;6139799;23;19973;-89
2022/11/26 08:53:05;;;;;;;;;;;;;;;;;;6143362;23;20248;-89
2022/11/26 08:55:31;;;;;;;;;;;;;;;;;;6139739;23;19986;-88
2022/11/26 08:57:57;;;;;;;;;;;;;;;;;;6147861;23;20223;-88
2022/11/26 09:00:26;;;;;;;;;;;;;;;;;;6145992;23;19928;-88
2022/11/26 09:02:52;;;;;;;;;;;;;;;;;;6169560;23;20614;-88
2022/11/26 09:05:18;;;;;;;;;;;;;;;;;;6141548;23;19930;-89
2022/11/26 09:07:44;;;;;;;;;;;;;;;;;;6138349;23;19928;-89
2022/11/26 09:10:10;;;;;;;;;;;;;;;;;;6116245;23;20234;-90
2022/11/26 09:12:36;;;;;;;;;;;;;;;;;;6139344;23;19920;-90
2022/11/26 09:15:01;;;;;;;;;;;;;;;;;;6140776;23;19947;-89
2022/11/26 09:17:27;;;;;;;;;;;;;;;;;;6139655;23;19969;-89
2022/11/26 09:19:54;;;;;;;;;;;;;;;;;;6115162;23;19924;-90
2022/11/26 09:22:20;;;;;;;;;;;;;;;;;;6116928;23;20250;-90
2022/11/26 09:24:46;;;;;;;;;;;;;;;;;;6137998;23;20401;-90
2022/11/26 09:27:12;;;;;;;;;;;;;;;;;;6117012;23;19920;-90
2022/11/26 09:29:59;;;;;;;;;;;;;;;;;;6114380;23;20213;-89
2022/11/26 09:32:24;;;;;;;;;;;;;;;;;;6138828;23;19920;-89
2022/11/26 09:34:50;;;;;;;;;;;;;;;;;;6115505;23;20405;-89
2022/11/26 09:37:18;;;;;;;;;;;;;;;;;;6115646;23;19920;-89
2022/11/26 09:39:44;;;;;;;;;;;;;;;;;;6114091;23;20012;-90
2022/11/26 09:42:10;;;;;;;;;;;;;;;;;;6136472;23;20075;-89
2022/11/26 09:44:36;;;;;;;;;;;;;;;;;;6116328;23;20299;-89
2022/11/26 09:47:02;;;;;;;;;;;;;;;;;;6118384;23;20035;-89
2022/11/26 09:49:38;;;;;;;;;;;;;;;;;;6113943;23;20051;-90
2022/11/26 09:52:41;;;;;;;;;;;;;;;;;;6138517;23;20261;-89
2022/11/26 09:55:07;;;;;;;;;;;;;;;;;;6138802;23;19921;-90
2022/11/26 10:00:28;;;;;;;;;;;;;;;;;;6135715;23;20338;-91
2022/11/26 10:02:54;;;;;;;;;;;;;;;;;;6142392;23;19923;-89
2022/11/26 10:05:20;;;;;;;;;;;;;;;;;;6117781;23;20252;-89
2022/11/26 10:07:46;;;;;;;;;;;;;;;;;;6115256;23;20273;-90
2022/11/26 10:10:31;;;;;;;;;;;;;;;;;;6116300;23;19926;-90
2022/11/26 10:12:57;;;;;;;;;;;;;;;;;;6141920;23;19955;-87
2022/11/26 10:15:28;;;;;;;;;;;;;;;;;;6117194;23;20305;-89
2022/11/26 10:21:01;;;;;;;;;;;;;;;;;;6134921;23;20328;-91
2022/11/26 10:23:58;;;;;;;;;;;;;;;;;;;;;
2022/11/26 10:26:43;;;;;;;;;;;;;;;;;;6141612;23;19920;-89
2022/11/26 10:29:09;;;;;;;;;;;;;;;;;;6144555;23;20285;-89
2022/11/26 10:31:35;;;;;;;;;;;;;;;;;;6114728;23;19927;-89
2022/11/26 10:34:04;;;;;;;;;;;;;;;;;;6118258;23;20003;-89
2022/11/26 10:36:38;;;;;;;;;;;;;;;;;;6165763;23;19924;-89
2022/11/26 10:39:11;;;;;;;;;;;;;;;;;;6112048;23;19924;-89
2022/11/26 10:41:37;;;;;;;;;;;;;;;;;;6115658;23;19920;-89
2022/11/26 10:44:11;;;;;;;;;;;;;;;;;;6140630;23;20243;-89
2022/11/26 10:46:37;;;;;;;;;;;;;;;;;;6167976;23;19920;-89
2022/11/26 10:49:05;;;;;;;;;;;;;;;;;;6116949;23;19924;-89
2022/11/26 10:51:40;;;;;;;;;;;;;;;;;;6113600;23;20325;-91
2022/11/26 10:57:00;;;;;;;;;;;;;;;;;;6074766;23;19917;-90
2022/11/26 10:59:29;;;;;;;;;;;;;;;;;;6025974;23;20020;-90
2022/11/26 11:02:07;;;;;;;;;;;;;;;;;;6029531;23;20363;-90
2022/11/26 11:04:59;;;;;;;;;;;;;;;;;;6051530;23;19949;-90
2022/11/26 11:07:37;;;;;;;;;;;;;;;;;;6047854;23;19921;-90
2022/11/26 11:10:08;;;;;;;;;;;;;;;;;;6026663;23;19925;-90
2022/11/26 11:12:34;;;;;;;;;;;;;;;;;;6021847;23;19927;-91
2022/11/26 11:15:06;;;;;;;;;;;;;;;;;;6025657;23;20085;-91
2022/11/26 11:20:31;;;;;;;;;;;;;;;;;;6047177;23;20004;-91
2022/11/26 11:23:06;;;;;;;;;;;;;;;;;;6027262;23;19976;-91
2022/11/26 11:25:41;;;;;;;;;;;;;;;;;;6028671;23;19929;-91
2022/11/26 11:28:19;;;;;;;;;;;;;;;;;;6082700;23;19920;-90
2022/11/26 11:31:03;;;;;;;;;;;;;;;;;;6114301;23;19932;-91
2022/11/26 11:33:29;;;;;;;;;;;;;;;;;;6118131;23;19975;-90
2022/11/26 11:36:08;;;;;;;;;;;;;;;;;;;;;
2022/11/26 11:38:39;;;;;;;;;;;;;;;;;;6143172;23;19920;-90
2022/11/26 11:41:13;;;;;;;;;;;;;;;;;;6121704;23;19928;-90
2022/11/26 11:43:42;;;;;;;;;;;;;;;;;;6118273;23;19924;-91
2022/11/26 11:46:18;;;;;;;;;;;;;;;;;;6119711;23;19920;-91
2022/11/26 11:48:45;;;;;;;;;;;;;;;;;;6119491;23;20368;-91
2022/11/26 11:51:14;;;;;;;;;;;;;;;;;;6146828;23;19969;-91
2022/11/26 11:53:43;;;;;;;;;;;;;;;;;;6118457;23;20396;-90
2022/11/26 11:56:09;;;;;;;;;;;;;;;;;;6143816;23;19920;-90
2022/11/26 11:58:37;;;;;;;;;;;;;;;;;;6141312;23;19943;-89
2022/11/26 12:01:03;;;;;;;;;;;;;;;;;;6118491;23;19951;-89
2022/11/26 12:03:29;;;;;;;;;;;;;;;;;;6112671;23;19999;-90
2022/11/26 12:05:55;;;;;;;;;;;;;;;;;;6142449;23;20067;-89
2022/11/26 12:08:21;;;;;;;;;;;;;;;;;;6106075;23;19925;-89
2022/11/26 12:10:47;;;;;;;;;;;;;;;;;;6083513;23;20334;-89
2022/11/26 12:13:13;;;;;;;;;;;;;;;;;;6111049;23;19925;-89
2022/11/26 12:15:40;;;;;;;;;;;;;;;;;;6109057;23;20417;-90
2022/11/26 12:18:09;;;;;;;;;;;;;;;;;;6112773;23;19921;-89
2022/11/26 12:20:35;;;;;;;;;;;;;;;;;;6106688;23;20183;-92
2022/11/26 12:23:01;;;;;;;;;;;;;;;;;;6110465;23;20227;-89
2022/11/26 12:25:27;;;;;;;;;;;;;;;;;;6112745;23;20346;-89
2022/11/26 12:27:54;;;;;;;;;;;;;;;;;;6114240;23;20443;-90
2022/11/26 12:30:20;;;;;;;;;;;;;;;;;;6119767;23;20460;-89
2022/11/26 12:32:46;;;;;;;;;;;;;;;;;;6113391;23;19921;-88
2022/11/26 12:35:12;;;;;;;;;;;;;;;;;;6117916;23;20227;-88
2022/11/26 12:37:38;;;;;;;;;;;;;;;;;;6115344;23;19927;-88
2022/11/26 12:40:04;;;;;;;;;;;;;;;;;;6117583;23;20357;-89
2022/11/26 12:42:29;;;;;;;;;;;;;;;;;;6116171;23;19920;-88
2022/11/26 12:44:55;;;;;;;;;;;;;;;;;;6120962;23;19930;-88
2022/11/26 12:47:21;;;;;;;;;;;;;;;;;;6121069;23;19920;-88
2022/11/26 12:49:47;;;;;;;;;;;;;;;;;;6117454;23;19920;-88
2022/11/26 12:52:15;;;;;;;;;;;;;;;;;;6095798;23;19928;-88
2022/11/26 12:54:41;;;;;;;;;;;;;;;;;;6114573;23;20265;-88
2022/11/26 12:57:06;;;;;;;;;;;;;;;;;;6120079;23;20362;-89
2022/11/26 12:59:32;;;;;;;;;;;;;;;;;;6115556;23;19979;-89
2022/11/26 13:01:58;;;;;;;;;;;;;;;;;;6119153;23;19921;-89
2022/11/26 13:04:24;;;;;;;;;;;;;;;;;;6113328;23;20317;-90
2022/11/26 13:06:50;;;;;;;;;;;;;;;;;;6118465;23;19925;-90
2022/11/26 13:09:16;;;;;;;;;;;;;;;;;;6139819;23;20370;-90
2022/11/26 13:11:42;;;;;;;;;;;;;;;;;;6122171;23;20401;-90
2022/11/26 13:14:08;;;;;;;;;;;;;;;;;;6145592;23;19927;-90
2022/11/26 13:16:36;;;;;;;;;;;;;;;;;;6120579;23;19991;-90
2022/11/26 13:19:02;;;;;;;;;;;;;;;;;;6124699;23;19955;-90
2022/11/26 13:21:28;;;;;;;;;;;;;;;;;;6121625;23;19916;-90
2022/11/26 13:23:54;;;;;;;;;;;;;;;;;;6148117;23;19927;-89
2022/11/26 13:26:20;;;;;;;;;;;;;;;;;;6124071;23;19959;-90
2022/11/26 13:28:46;;;;;;;;;;;;;;;;;;6121210;23;19928;-90
2022/11/26 13:31:12;;;;;;;;;;;;;;;;;;6123348;23;19982;-90
2022/11/26 13:33:38;;;;;;;;;;;;;;;;;;6142969;23;19995;-90
2022/11/26 13:36:04;;;;;;;;;;;;;;;;;;6122855;23;19920;-90
2022/11/26 13:38:30;;;;;;;;;;;;;;;;;;6141921;23;19916;-89
2022/11/26 13:40:56;;;;;;;;;;;;;;;;;;6125848;23;19932;-89
2022/11/26 13:43:22;;;;;;;;;;;;;;;;;;6122064;23;20035;-89
2022/11/26 13:45:51;;;;;;;;;;;;;;;;;;6124003;23;19920;-89
2022/11/26 13:48:17;;;;;;;;;;;;;;;;;;6123087;23;20320;-89
2022/11/26 13:50:43;;;;;;;;;;;;;;;;;;6144843;23;20415;-89
2022/11/26 13:53:09;;;;;;;;;;;;;;;;;;6120163;23;19948;-89
2022/11/26 13:55:37;;;;;;;;;;;;;;;;;;6140328;23;19967;-89
2022/11/26 13:58:03;;;;;;;;;;;;;;;;;;6124891;23;19963;-89
2022/11/26 14:00:30;;;;;;;;;;;;;;;;;;6120486;23;19955;-89
2022/11/26 14:02:56;;;;;;;;;;;;;;;;;;6120578;23;20289;-89
2022/11/26 14:05:22;;;;;;;;;;;;;;;;;;6146569;23;19916;-89
2022/11/26 14:07:48;;;;;;;;;;;;;;;;;;6120978;23;19921;-89
2022/11/26 14:10:15;;;;;;;;;;;;;;;;;;6144892;23;20280;-89
2022/11/26 14:12:41;;;;;;;;;;;;;;;;;;6118858;23;20297;-89
2022/11/26 14:15:07;;;;;;;;;;;;;;;;;;6122206;23;19947;-89
2022/11/26 14:17:33;;;;;;;;;;;;;;;;;;6141046;23;19924;-89
2022/11/26 14:19:59;;;;;;;;;;;;;;;;;;6144973;23;19990;-89
2022/11/26 14:22:25;;;;;;;;;;;;;;;;;;6119164;23;19928;-89
2022/11/26 14:24:51;;;;;;;;;;;;;;;;;;6146923;23;19919;-89
2022/11/26 14:27:17;;;;;;;;;;;;;;;;;;6122634;23;20114;-89
2022/11/26 14:29:42;;;;;;;;;;;;;;;;;;6120050;23;20244;-89
2022/11/26 14:32:08;;;;;;;;;;;;;;;;;;6121475;23;19920;-89
2022/11/26 14:34:37;;;;;;;;;;;;;;;;;;6143921;23;20303;-89
2022/11/26 14:37:03;;;;;;;;;;;;;;;;;;6146868;23;19924;-89
2022/11/26 14:39:30;;;;;;;;;;;;;;;;;;6144117;23;19950;-89
2022/11/26 14:41:56;;;;;;;;;;;;;;;;;;6122836;23;19916;-89
2022/11/26 14:44:25;;;;;;;;;;;;;;;;;;6144576;23;20212;-89
2022/11/26 14:46:51;;;;;;;;;;;;;;;;;;6146832;23;19923;-89
2022/11/26 14:49:17;;;;;;;;;;;;;;;;;;6122772;23;19920;-89
2022/11/26 14:51:44;;;;;;;;;;;;;;;;;;6119865;23;20239;-89
2022/11/26 14:54:10;;;;;;;;;;;;;;;;;;6121461;23;19967;-89
2022/11/26 14:59:29;;;;;;;;;;;;;;;;;;6134533;23;20254;-90
2022/11/26 15:02:01;;;;;;;;;;;;;;;;;;6105074;23;19949;-89
2022/11/26 15:04:41;;;;;;;;;;;;;;;;;;6084617;23;20246;-89
2022/11/26 15:07:28;;;;;;;;;;;;;;;;;;6104169;23;19927;-90
2022/11/26 15:10:05;;;;;;;;;;;;;;;;;;6083014;23;20060;-90
2022/11/26 15:12:37;;;;;;;;;;;;;;;;;;6080305;23;19920;-89
2022/11/26 15:15:22;;;;;;;;;;;;;;;;;;;;;
2022/11/26 15:18:21;;;;;;;;;;;;;;;;;;6027211;23;19921;-90
2022/11/26 15:21:07;;;;;;;;;;;;;;;;;;6075336;23;20429;-89
2022/11/26 15:23:42;;;;;;;;;;;;;;;;;;6048372;23;19921;-89
2022/11/26 15:26:32;;;;;;;;;;;;;;;;;;6032545;23;20450;-89
2022/11/26 15:29:19;;;;;;;;;;;;;;;;;;6073248;23;20229;-89
2022/11/26 15:32:04;;;;;;;;;;;;;;;;;;;;;
2022/11/26 15:34:33;;;;;;;;;;;;;;;;;;6096196;23;19978;-92
2022/11/26 15:37:14;;;;;;;;;;;;;;;;;;6099924;23;19927;-89
2022/11/26 15:40:04;;;;;;;;;;;;;;;;;;6016094;23;20248;-89
2022/11/26 15:46:07;;;;;;;;;;;;;;;;;;5917965;24;19926;-89
2022/11/26 15:48:54;;;;;;;;;;;;;;;;;;6041899;23;20263;-90
2022/11/26 15:51:33;;;;;;;;;;;;;;;;;;;;;
2022/11/26 15:54:18;;;;;;;;;;;;;;;;;;6070074;23;19932;-89
2022/11/26 16:00:13;;;;;;;;;;;;;;;;;;5999329;23;20596;-88
2022/11/26 16:02:39;;;;;;;;;;;;;;;;;;5962463;23;19926;-89
2022/11/26 16:05:27;;;;;;;;;;;;;;;;;;5938541;23;19945;-88
2022/11/26 16:07:53;;;;;;;;;;;;;;;;;;5959565;24;19922;-89
2022/11/26 16:10:20;;;;;;;;;;;;;;;;;;5964694;24;19922;-88
2022/11/26 16:12:46;;;;;;;;;;;;;;;;;;5959099;24;19926;-89
2022/11/26 16:15:12;;;;;;;;;;;;;;;;;;5960903;23;20438;-89
2022/11/26 16:17:38;;;;;;;;;;;;;;;;;;5978732;23;19954;-89
2022/11/26 16:20:04;;;;;;;;;;;;;;;;;;5982052;23;19926;-89
2022/11/26 16:22:30;;;;;;;;;;;;;;;;;;5981056;23;20367;-89
2022/11/26 16:24:56;;;;;;;;;;;;;;;;;;5981179;23;19922;-89
2022/11/26 16:27:25;;;;;;;;;;;;;;;;;;6044012;23;20397;-88
2022/11/26 16:29:51;;;;;;;;;;;;;;;;;;6055806;23;19952;-86
2022/11/26 16:32:17;;;;;;;;;;;;;;;;;;6082965;23;19940;-86
2022/11/26 16:34:43;;;;;;;;;;;;;;;;;;6082843;23;20354;-88
2022/11/26 16:37:09;;;;;;;;;;;;;;;;;;6110663;23;19920;-88
2022/11/26 16:39:37;;;;;;;;;;;;;;;;;;6086038;23;20235;-87
2022/11/26 16:42:03;;;;;;;;;;;;;;;;;;6113330;23;20289;-88
2022/11/26 16:44:29;;;;;;;;;;;;;;;;;;6083430;23;19971;-88
2022/11/26 16:46:55;;;;;;;;;;;;;;;;;;6088746;23;19920;-88
2022/11/26 16:49:24;;;;;;;;;;;;;;;;;;6086892;23;19971;-88
2022/11/26 16:51:50;;;;;;;;;;;;;;;;;;6111647;23;19926;-88
2022/11/26 16:54:16;;;;;;;;;;;;;;;;;;6133335;23;19921;-88
2022/11/26 16:56:42;;;;;;;;;;;;;;;;;;6083837;23;19921;-88
2022/11/26 16:59:08;;;;;;;;;;;;;;;;;;6088946;23;19928;-88
2022/11/26 17:01:34;;;;;;;;;;;;;;;;;;6084687;23;20402;-87
2022/11/26 17:04:00;;;;;;;;;;;;;;;;;;6106362;23;20353;-88
2022/11/26 17:06:26;;;;;;;;;;;;;;;;;;6085586;23;20115;-88
2022/11/26 17:08:52;;;;;;;;;;;;;;;;;;6099819;23;19967;-88
2022/11/26 17:11:18;;;;;;;;;;;;;;;;;;6133000;23;19920;-88
2022/11/26 17:13:45;;;;;;;;;;;;;;;;;;6141498;23;19920;-87